Time;durP1;ratioP1;P1;durP2;ratioP2;P2;SDS_P1;SDS_P2;PMS_P1;PMS_P2;Temp;Humidity;BMP_temperature;BMP_pressure;BME280_temperature;BME280_humidity;BME280_pressure;Samples;Min_cycle;Max_cycle;Signal;HPM_P1;HPM_P2
2020/12/12 00:01:01;;;;;;;63.58;28.08;;;;;;;12.89;64.01;97155.84;5112635;27;20041;-82
2020/12/12 00:03:27;;;;;;;62.97;26.35;;;;;;;12.65;64.60;97158.06;5112218;27;20183;-83
2020/12/12 00:05:53;;;;;;;60.05;26.48;;;;;;;12.78;64.63;97163.44;5126738;27;20127;-83
2020/12/12 00:08:19;;;;;;;55.47;25.98;;;;;;;13.06;64.00;97162.72;5116091;27;20042;-83
2020/12/12 00:10:48;;;;;;;60.55;27.27;;;;;;;12.70;64.95;97165.66;5124116;27;20106;-82
2020/12/12 00:13:14;;;;;;;55.17;25.45;;;;;;;12.95;64.58;97173.00;5128213;27;20092;-80
2020/12/12 00:15:41;;;;;;;53.83;26.60;;;;;;;13.08;63.97;97173.97;5107375;28;20061;-83
2020/12/12 00:18:07;;;;;;;54.35;24.63;;;;;;;13.20;63.74;97180.28;5123306;27;20118;-82
2020/12/12 00:20:35;;;;;;;58.00;25.58;;;;;;;13.20;63.89;97182.91;5127549;28;20490;-83
2020/12/12 00:23:03;;;;;;;54.40;24.75;;;;;;;13.18;63.78;97190.91;5125335;27;20030;-83
2020/12/12 00:25:29;;;;;;;61.17;26.80;;;;;;;13.22;63.49;97183.69;5109829;28;20046;-84
2020/12/12 00:27:55;;;;;;;68.35;27.63;;;;;;;12.93;64.41;97183.56;5114967;28;20034;-83
2020/12/12 00:30:21;;;;;;;71.22;26.88;;;;;;;12.95;64.79;97181.66;5114495;28;20390;-84
2020/12/12 00:32:47;;;;;;;65.20;28.63;;;;;;;12.82;64.95;97188.53;5111484;28;20102;-83
2020/12/12 00:35:13;;;;;;;67.20;26.92;;;;;;;13.03;64.50;97192.59;5124940;27;20034;-82
2020/12/12 00:37:46;;;;;;;68.53;27.00;;;;;;;13.16;64.04;97189.28;5112028;28;20095;-81
2020/12/12 00:40:15;;;;;;;79.20;28.10;;;;;;;12.89;64.89;97189.06;5126478;28;20043;-82
2020/12/12 00:42:41;;;;;;;74.65;28.20;;;;;;;13.00;64.91;97200.59;5114307;28;20035;-83
2020/12/12 00:45:06;;;;;;;71.35;28.98;;;;;;;13.04;64.83;97207.34;5128250;28;20664;-84
2020/12/12 00:47:32;;;;;;;81.50;28.75;;;;;;;13.15;64.44;97204.16;5132676;27;20130;-83
2020/12/12 00:49:58;;;;;;;61.85;27.02;;;;;;;13.23;64.32;97206.34;5129431;28;20154;-83
2020/12/12 00:52:24;;;;;;;85.82;28.77;;;;;;;13.18;64.19;97205.78;5115799;27;20058;-82
2020/12/12 00:54:51;;;;;;;130.25;29.42;;;;;;;13.06;64.66;97210.75;5119573;28;20039;-84
2020/12/12 00:57:17;;;;;;;74.05;28.88;;;;;;;13.20;64.55;97211.75;5111253;28;20046;-81
2020/12/12 00:59:43;;;;;;;324.17;32.50;;;;;;;12.42;66.95;97205.59;5116158;28;20031;-83
2020/12/12 01:02:08;;;;;;;65.32;26.00;;;;;;;12.97;65.41;97211.25;5109828;28;20061;-83
2020/12/12 01:04:34;;;;;;;83.90;27.10;;;;;;;12.95;65.57;97204.44;5115778;27;20093;-83
2020/12/12 01:07:00;;;;;;;55.88;26.08;;;;;;;13.03;65.63;97204.84;5130808;27;20346;-83
2020/12/12 01:09:26;;;;;;;65.30;28.48;;;;;;;12.81;66.04;97205.19;5139417;27;20278;-81
2020/12/12 01:11:58;;;;;;;149.85;28.02;;;;;;;12.91;65.55;97213.38;5121151;27;20477;-84
2020/12/12 01:14:26;;;;;;;58.70;25.20;;;;;;;12.89;65.93;97212.63;5113834;27;20342;-85
2020/12/12 01:16:52;;;;;;;59.90;26.13;;;;;;;12.87;65.74;97217.94;5113039;27;20055;-82
2020/12/12 01:19:18;;;;;;;115.65;29.15;;;;;;;12.90;66.02;97224.81;5119404;27;20498;-83
2020/12/12 01:21:43;;;;;;;70.80;25.95;;;;;;;13.08;65.45;97227.25;5141219;27;20064;-82
2020/12/12 01:24:09;;;;;;;123.10;25.50;;;;;;;12.92;65.46;97230.78;5131156;27;20087;-83
2020/12/12 01:26:35;;;;;;;75.88;26.25;;;;;;;13.00;65.53;97244.31;5125700;27;20065;-82
2020/12/12 01:29:01;;;;;;;58.08;24.08;;;;;;;13.08;65.15;97245.59;5133263;27;20031;-82
2020/12/12 01:31:28;;;;;;;184.32;28.08;;;;;;;12.79;66.00;97249.00;5131542;27;20035;-83
2020/12/12 01:33:54;;;;;;;48.28;23.10;;;;;;;13.14;65.07;97238.34;5134610;27;20037;-83
2020/12/12 01:36:24;;;;;;;47.85;23.92;;;;;;;13.23;64.72;97249.16;5114566;27;20668;-83
2020/12/12 01:38:50;;;;;;;47.60;23.40;;;;;;;13.13;65.20;97250.59;5135936;27;20031;-82
2020/12/12 01:41:18;;;;;;;56.78;25.40;;;;;;;13.18;64.75;97256.44;5110821;27;20120;-83
2020/12/12 01:43:57;;;;;;;54.92;24.45;;;;;;;13.18;64.95;97261.69;5135990;27;20107;-82
2020/12/12 01:46:27;;;;;;;60.38;25.70;;;;;;;12.92;65.72;97259.63;5116419;27;20103;-82
2020/12/12 01:48:56;;;;;;;58.78;26.75;;;;;;;13.21;64.71;97260.63;5118051;27;20028;-85
2020/12/12 01:51:26;;;;;;;56.88;26.13;;;;;;;13.33;64.46;97262.59;5071025;28;20036;-83
2020/12/12 01:53:58;;;;;;;78.70;26.23;;;;;;;13.18;65.11;97264.31;5061921;28;20032;-82
2020/12/12 01:56:29;;;;;;;87.85;25.67;;;;;;;13.27;64.68;97269.03;5057353;28;20054;-83
2020/12/12 01:58:55;;;;;;;49.17;25.30;;;;;;;13.36;64.27;97272.88;5070525;28;20052;-83
2020/12/12 02:01:22;;;;;;;58.55;25.38;;;;;;;13.42;64.33;97285.66;5060769;28;20620;-83
2020/12/12 02:03:50;;;;;;;59.17;26.90;;;;;;;13.38;64.19;97279.72;5075438;28;20414;-83
2020/12/12 02:06:21;;;;;;;69.43;28.10;;;;;;;13.52;63.97;97278.97;5081045;28;20032;-83
2020/12/12 02:08:52;;;;;;;63.95;27.23;;;;;;;13.50;63.78;97284.28;5077853;28;20202;-80
2020/12/12 02:11:19;;;;;;;87.82;30.63;;;;;;;12.88;64.97;97284.31;5074950;28;20131;-83
2020/12/12 02:13:46;;;;;;;70.40;29.52;;;;;;;13.24;64.54;97292.78;5061084;28;20044;-82
2020/12/12 02:16:16;;;;;;;72.00;27.52;;;;;;;13.27;63.96;97294.38;5067912;28;20048;-84
2020/12/12 02:18:51;;;;;;;65.18;26.75;;;;;;;13.35;63.83;97300.03;5091691;28;20035;-83
2020/12/12 02:21:18;;;;;;;69.38;26.98;;;;;;;13.22;64.39;97296.41;5054055;28;20066;-81
2020/12/12 02:23:44;;;;;;;59.30;25.38;;;;;;;13.45;63.58;97293.34;5076783;28;20393;-84
2020/12/12 02:26:10;;;;;;;65.80;25.77;;;;;;;13.46;63.68;97308.16;5065880;28;20036;-80
2020/12/12 02:28:51;;;;;;;69.43;26.08;;;;;;;13.48;63.58;97303.66;5087352;27;20047;-83
2020/12/12 02:31:17;;;;;;;62.60;26.30;;;;;;;13.46;63.72;97305.53;5109663;27;20027;-82
2020/12/12 02:33:43;;;;;;;64.93;25.77;;;;;;;13.41;63.75;97308.41;5130611;27;20087;-82
2020/12/12 02:36:09;;;;;;;60.03;25.25;;;;;;;13.36;64.00;97317.47;5110748;27;20040;-81
2020/12/12 02:38:36;;;;;;;68.00;26.50;;;;;;;13.39;63.77;97318.13;5122765;27;20039;-83
2020/12/12 02:41:01;;;;;;;67.88;27.95;;;;;;;13.50;62.92;97326.25;5118088;27;20038;-83
2020/12/12 02:43:35;;;;;;;65.18;25.33;;;;;;;13.30;63.86;97325.66;5132619;27;20012;-84
2020/12/12 02:46:01;;;;;;;62.00;25.33;;;;;;;13.40;63.93;97321.59;5129513;27;20022;-84
2020/12/12 02:48:27;;;;;;;60.15;25.33;;;;;;;13.49;63.32;97321.09;5128059;27;20038;-84
2020/12/12 02:50:53;;;;;;;73.25;27.27;;;;;;;13.22;63.96;97328.72;5113975;27;20524;-81
2020/12/12 02:53:18;;;;;;;59.67;25.33;;;;;;;13.37;63.83;97324.41;5126741;27;20051;-82
2020/12/12 02:55:44;;;;;;;66.72;27.05;;;;;;;13.48;63.42;97335.13;5133194;27;20058;-83
2020/12/12 02:58:12;;;;;;;84.25;26.75;;;;;;;13.09;64.56;97327.69;5132765;27;20030;-83
2020/12/12 03:00:38;;;;;;;64.47;25.40;;;;;;;13.17;63.99;97332.53;5133472;27;20034;-81
2020/12/12 03:03:04;;;;;;;65.90;25.80;;;;;;;13.12;64.57;97330.16;5128505;27;20028;-82
2020/12/12 03:05:30;;;;;;;67.53;26.98;;;;;;;13.19;64.38;97338.56;5110818;27;20047;-83
2020/12/12 03:07:55;;;;;;;97.30;26.10;;;;;;;12.96;64.95;97334.53;5113211;27;20075;-82
2020/12/12 03:10:21;;;;;;;69.18;24.35;;;;;;;12.95;64.73;97340.72;5123770;27;20440;-84
2020/12/12 03:12:47;;;;;;;58.10;23.35;;;;;;;13.22;64.29;97351.47;5128963;27;20027;-82
2020/12/12 03:15:13;;;;;;;101.15;26.33;;;;;;;13.09;64.56;97346.88;5104865;27;20034;-82
2020/12/12 03:17:38;;;;;;;89.55;24.65;;;;;;;13.11;64.69;97338.97;5126217;27;20027;-82
2020/12/12 03:20:06;;;;;;;77.78;25.90;;;;;;;12.91;65.19;97350.50;5130083;27;20106;-82
2020/12/12 03:22:32;;;;;;;62.35;24.05;;;;;;;12.91;65.22;97345.25;5116245;27;20035;-83
2020/12/12 03:24:58;;;;;;;61.25;25.35;;;;;;;13.01;64.81;97359.56;5130323;27;20511;-82
2020/12/12 03:27:24;;;;;;;62.22;25.75;;;;;;;13.06;64.59;97357.53;5113713;27;20047;-83
2020/12/12 03:29:50;;;;;;;57.97;25.17;;;;;;;13.14;64.44;97356.31;5128943;27;20031;-82
2020/12/12 03:32:17;;;;;;;55.35;24.30;;;;;;;13.10;64.45;97358.19;5108782;27;20027;-83
2020/12/12 03:34:46;;;;;;;61.10;24.80;;;;;;;13.16;64.10;97363.16;5125390;27;20035;-84
2020/12/12 03:37:13;;;;;;;60.03;25.35;;;;;;;13.18;64.00;97374.41;5110477;27;20374;-82
2020/12/12 03:39:39;;;;;;;49.03;22.05;;;;;;;13.17;64.48;97377.09;5109125;27;20043;-84
2020/12/12 03:42:05;;;;;;;54.10;24.25;;;;;;;13.22;63.94;97373.31;5107910;28;20833;-83
2020/12/12 03:44:31;;;;;;;113.22;25.00;;;;;;;13.00;64.88;97378.81;5109728;27;20043;-82
2020/12/12 03:46:58;;;;;;;50.25;23.77;;;;;;;13.19;64.03;97385.75;5109497;27;20058;-82
2020/12/12 03:49:23;;;;;;;75.13;26.58;;;;;;;13.21;64.00;97381.25;5127628;27;20026;-83
2020/12/12 03:51:49;;;;;;;58.08;26.08;;;;;;;13.20;63.99;97383.03;5113989;27;20134;-81
2020/12/12 03:54:17;;;;;;;54.25;24.42;;;;;;;13.23;63.77;97395.97;5113412;27;20543;-83
2020/12/12 03:56:43;;;;;;;50.75;23.27;;;;;;;13.16;64.10;97385.91;5126368;27;20054;-83
2020/12/12 03:59:09;;;;;;;109.95;26.13;;;;;;;12.96;64.41;97389.56;5112867;27;20035;-81
2020/12/12 04:01:35;;;;;;;57.22;25.20;;;;;;;13.18;64.11;97392.75;5106098;28;20031;-83
2020/12/12 04:04:05;;;;;;;54.70;23.85;;;;;;;13.24;64.07;97391.56;5107033;27;20031;-83
2020/12/12 04:06:33;;;;;;;48.47;23.67;;;;;;;13.20;63.85;97393.50;5111760;28;20038;-83
2020/12/12 04:08:58;;;;;;;69.03;24.73;;;;;;;13.06;64.28;97388.97;5111141;28;20447;-82
2020/12/12 04:11:24;;;;;;;49.15;23.30;;;;;;;12.98;64.73;97401.66;5118521;27;20027;-80
2020/12/12 04:13:51;;;;;;;47.58;23.65;;;;;;;13.07;64.34;97405.56;5122748;27;20027;-82
2020/12/12 04:16:18;;;;;;;52.92;25.20;;;;;;;13.06;64.38;97404.72;5106246;27;20050;-83
2020/12/12 04:18:47;;;;;;;54.10;25.45;;;;;;;13.11;64.08;97407.13;5115662;28;20028;-83
2020/12/12 04:21:14;;;;;;;52.05;24.50;;;;;;;13.05;64.15;97413.50;5093356;28;20126;-83
2020/12/12 04:23:43;;;;;;;54.45;23.75;;;;;;;13.11;64.00;97412.34;5132373;28;20438;-83
2020/12/12 04:26:11;;;;;;;48.95;22.90;;;;;;;13.12;63.85;97414.06;5115913;28;20037;-84
2020/12/12 04:28:39;;;;;;;49.50;24.52;;;;;;;13.08;63.88;97412.50;5113806;28;20031;-82
2020/12/12 04:31:06;;;;;;;55.88;23.63;;;;;;;13.10;63.92;97424.59;5107465;27;20089;-85
2020/12/12 04:33:33;;;;;;;46.22;22.75;;;;;;;13.10;63.78;97419.34;5117420;28;20510;-83
2020/12/12 04:35:59;;;;;;;50.08;24.23;;;;;;;12.86;64.35;97419.78;5111477;27;20057;-82
2020/12/12 04:38:26;;;;;;;52.38;24.30;;;;;;;12.97;64.06;97430.56;5134559;27;20035;-82
2020/12/12 04:40:53;;;;;;;48.95;24.45;;;;;;;12.99;63.63;97428.72;5135052;27;20412;-81
2020/12/12 04:43:20;;;;;;;48.15;24.13;;;;;;;12.98;63.66;97429.66;5115172;27;20029;-82
2020/12/12 04:45:48;;;;;;;45.42;22.20;;;;;;;12.94;64.07;97435.97;5127958;27;20041;-83
2020/12/12 04:48:14;;;;;;;44.45;22.67;;;;;;;12.82;64.11;97437.47;5128133;27;20031;-83
2020/12/12 04:50:40;;;;;;;48.13;22.75;;;;;;;12.74;64.12;97446.66;5132962;27;20031;-83
2020/12/12 04:53:26;;;;;;;51.05;23.65;;;;;;;12.80;64.03;97447.19;5136568;27;20229;-85
2020/12/12 04:55:54;;;;;;;45.53;21.63;;;;;;;12.84;63.90;97453.09;5117107;27;20043;-84
2020/12/12 04:58:27;;;;;;;44.22;21.98;;;;;;;12.84;63.84;97453.97;5137111;27;20519;-82
2020/12/12 05:00:55;;;;;;;43.45;21.83;;;;;;;12.91;63.62;97457.09;5114378;27;20492;-83
2020/12/12 05:03:23;;;;;;;44.33;22.88;;;;;;;12.80;63.93;97462.91;5134447;27;20035;-82
2020/12/12 05:05:49;;;;;;;39.03;21.27;;;;;;;12.82;64.16;97460.19;5117536;27;20095;-84
2020/12/12 05:08:15;;;;;;;41.60;21.60;;;;;;;12.89;63.86;97462.44;5137121;27;20045;-85
2020/12/12 05:10:43;;;;;;;43.28;21.10;;;;;;;12.80;63.95;97465.53;5135786;27;20102;-83
2020/12/12 05:13:17;;;;;;;40.08;20.92;;;;;;;12.90;63.70;97468.53;5090780;28;20035;-82
2020/12/12 05:15:43;;;;;;;39.28;20.65;;;;;;;12.92;63.68;97470.13;5121198;27;20055;-81
2020/12/12 05:18:09;;;;;;;40.05;21.02;;;;;;;12.89;63.83;97474.69;5109668;27;20043;-83
2020/12/12 05:20:36;;;;;;;40.22;21.02;;;;;;;12.96;63.66;97474.28;5099138;27;20513;-83
2020/12/12 05:23:09;;;;;;;42.05;21.55;;;;;;;12.94;63.44;97480.53;5108449;27;20464;-83
2020/12/12 05:25:35;;;;;;;38.65;21.30;;;;;;;12.94;63.85;97475.28;5102949;27;20127;-82
2020/12/12 05:28:01;;;;;;;38.85;21.15;;;;;;;12.89;63.69;97480.78;5109393;27;20065;-83
2020/12/12 05:30:33;;;;;;;41.45;21.10;;;;;;;12.91;63.78;97485.91;5110707;27;20077;-84
2020/12/12 05:33:00;;;;;;;;;;;;;;;12.87;63.78;97480.00;5113831;27;20142;-82
2020/12/12 05:35:26;;;;;;;36.03;18.65;;;;;;;12.83;63.90;97482.84;5125680;27;19911;-84
2020/12/12 05:37:54;;;;;;;35.22;18.90;;;;;;;12.73;63.73;97479.84;5116777;27;20072;-83
2020/12/12 05:40:23;;;;;;;39.58;19.88;;;;;;;12.73;64.19;97490.34;5094110;27;20024;-84
2020/12/12 05:42:50;;;;;;;31.95;17.80;;;;;;;12.82;63.85;97484.63;5116288;27;20062;-84
2020/12/12 05:45:17;;;;;;;34.58;17.50;;;;;;;12.93;63.48;97492.78;5121910;27;20020;-84
2020/12/12 05:47:43;;;;;;;31.38;17.40;;;;;;;12.93;63.64;97490.16;5123660;27;20032;-83
2020/12/12 05:50:10;;;;;;;35.35;17.38;;;;;;;12.81;63.70;97490.78;5120952;27;20050;-83
2020/12/12 05:52:39;;;;;;;26.42;14.70;;;;;;;12.68;64.39;97494.97;5129079;27;20035;-83
2020/12/12 05:55:05;;;;;;;22.80;12.93;;;;;;;12.20;66.60;97496.47;5128072;27;20027;-83
2020/12/12 05:57:32;;;;;;;29.83;15.00;;;;;;;12.33;66.26;97504.56;5133145;27;20083;-83
2020/12/12 05:59:58;;;;;;;59.90;20.00;;;;;;;12.13;66.26;97500.31;5123612;27;20032;-84
2020/12/12 06:02:27;;;;;;;38.80;17.73;;;;;;;12.31;66.22;97505.59;5123523;27;20092;-82
2020/12/12 06:04:53;;;;;;;33.53;16.75;;;;;;;12.35;66.01;97513.22;5124490;27;20040;-83
2020/12/12 06:07:29;;;;;;;29.48;16.13;;;;;;;12.70;65.01;97510.63;5115005;27;20114;-82
2020/12/12 06:10:04;;;;;;;28.90;14.88;;;;;;;12.65;65.04;97508.22;5114986;27;20050;-84
2020/12/12 06:12:31;;;;;;;24.15;13.70;;;;;;;12.74;64.93;97518.25;5115351;27;20027;-82
2020/12/12 06:14:58;;;;;;;24.63;13.93;;;;;;;12.75;64.90;97524.31;5112484;27;20367;-82
2020/12/12 06:17:50;;;;;;;24.88;13.13;;;;;;;12.70;64.75;97527.19;5133243;27;20035;-83
2020/12/12 06:20:19;;;;;;;22.95;13.00;;;;;;;12.41;65.95;97528.63;5126310;27;20035;-83
2020/12/12 06:22:46;;;;;;;26.42;13.68;;;;;;;12.83;65.13;97530.88;5126091;27;20038;-83
2020/12/12 06:25:20;;;;;;;23.48;12.60;;;;;;;12.82;65.06;97529.16;5148333;27;20389;-82
2020/12/12 06:27:53;;;;;;;20.63;12.25;;;;;;;13.02;64.35;97529.00;5106966;27;20039;-82
2020/12/12 06:30:21;;;;;;;25.35;13.52;;;;;;;12.88;64.37;97533.25;5129886;27;20057;-81
2020/12/12 06:32:47;;;;;;;29.35;14.93;;;;;;;12.89;64.48;97527.09;5123517;27;20039;-84
2020/12/12 06:35:14;;;;;;;24.50;13.88;;;;;;;13.00;63.99;97537.84;5124292;27;20038;-81
2020/12/12 06:37:41;;;;;;;21.60;11.80;;;;;;;13.09;63.92;97538.22;5125130;27;20029;-84
2020/12/12 06:40:09;;;;;;;19.30;11.45;;;;;;;13.11;64.21;97540.81;5099614;27;20035;-83
2020/12/12 06:42:36;;;;;;;22.52;12.20;;;;;;;13.12;63.92;97544.28;5131421;27;20043;-83
2020/12/12 06:45:25;;;;;;;21.73;12.93;;;;;;;13.00;64.52;97551.81;5111970;27;20043;-83
2020/12/12 06:47:52;;;;;;;21.70;12.02;;;;;;;12.95;64.34;97553.00;5127115;27;20031;-81
2020/12/12 06:50:24;;;;;;;18.25;11.88;;;;;;;13.00;64.05;97550.97;5127205;27;20031;-83
2020/12/12 06:52:50;;;;;;;21.83;12.17;;;;;;;13.00;64.33;97557.06;5131208;27;20047;-82
2020/12/12 06:55:18;;;;;;;19.55;12.25;;;;;;;13.14;63.67;97563.41;5129105;27;20050;-84
2020/12/12 06:57:47;;;;;;;17.55;10.98;;;;;;;13.14;63.61;97571.28;5129387;27;20035;-82
2020/12/12 07:00:25;;;;;;;16.80;10.52;;;;;;;13.28;63.45;97574.03;5115329;27;20385;-80
2020/12/12 07:03:02;;;;;;;18.08;11.02;;;;;;;13.28;63.24;97576.66;5128582;27;20068;-83
2020/12/12 07:05:32;;;;;;;19.33;11.63;;;;;;;13.25;63.64;97582.88;5135699;27;20023;-83
2020/12/12 07:08:07;;;;;;;18.73;11.23;;;;;;;13.31;63.28;97590.44;5124269;27;20034;-83
2020/12/12 07:10:34;;;;;;;17.75;10.63;;;;;;;13.33;63.21;97587.75;5130820;27;20092;-83
2020/12/12 07:13:01;;;;;;;16.80;10.40;;;;;;;13.30;63.51;97593.16;5112095;27;20394;-83
2020/12/12 07:15:31;;;;;;;19.13;11.13;;;;;;;13.35;63.34;97599.84;5132917;27;20156;-84
2020/12/12 07:18:08;;;;;;;13.93;9.23;;;;;;;13.38;62.95;97606.72;5123594;27;20046;-83
2020/12/12 07:20:39;;;;;;;19.40;11.43;;;;;;;13.35;63.28;97601.63;5106983;27;20039;-84
2020/12/12 07:23:06;;;;;;;15.05;9.48;;;;;;;13.26;63.41;97613.44;5125923;27;20039;-81
2020/12/12 07:25:33;;;;;;;15.90;10.20;;;;;;;13.29;63.30;97613.28;5130058;27;20126;-82
2020/12/12 07:28:01;;;;;;;14.50;9.43;;;;;;;13.29;62.97;97621.13;5111892;27;20034;-83
2020/12/12 07:30:27;;;;;;;14.25;9.43;;;;;;;13.23;63.21;97626.72;5124823;27;20117;-81
2020/12/12 07:32:53;;;;;;;19.25;11.15;;;;;;;13.29;62.70;97631.63;5125579;27;20395;-82
2020/12/12 07:35:20;;;;;;;18.45;10.55;;;;;;;13.20;63.35;97639.97;5115334;27;20039;-83
2020/12/12 07:37:46;;;;;;;18.50;9.73;;;;;;;13.18;63.02;97644.44;5126755;27;20030;-83
2020/12/12 07:40:12;;;;;;;21.30;10.95;;;;;;;13.07;63.54;97647.56;5132080;27;20031;-83
2020/12/12 07:42:38;;;;;;;16.63;10.48;;;;;;;13.12;63.68;97647.38;5130553;27;20031;-84
2020/12/12 07:45:26;;;;;;;19.50;11.00;;;;;;;12.99;63.63;97639.25;5102117;27;20111;-85
2020/12/12 07:48:01;;;;;;;20.35;12.75;;;;;;;12.82;64.59;97665.44;5115157;27;20351;-83
2020/12/12 07:50:27;;;;;;;22.73;13.90;;;;;;;12.62;64.71;97661.16;5108909;27;20397;-82
2020/12/12 07:52:53;;;;;;;28.35;15.88;;;;;;;12.79;64.70;97665.59;5124143;27;20122;-84
2020/12/12 07:55:21;;;;;;;25.63;16.73;;;;;;;12.92;64.08;97669.28;5128054;27;20032;-82
2020/12/12 07:57:55;;;;;;;24.40;14.25;;;;;;;12.97;63.91;97684.78;5113948;27;20122;-82
2020/12/12 08:00:21;;;;;;;19.65;11.82;;;;;;;12.99;64.01;97682.97;5125698;27;20042;-82
2020/12/12 08:02:56;;;;;;;16.67;10.75;;;;;;;12.96;64.12;97683.94;5083862;28;20147;-82
2020/12/12 08:05:21;;;;;;;17.88;10.55;;;;;;;12.96;63.86;97691.81;5087816;28;20117;-84
2020/12/12 08:07:48;;;;;;;17.23;10.70;;;;;;;13.02;63.65;97699.38;5090756;28;20039;-83
2020/12/12 08:10:14;;;;;;;16.65;10.80;;;;;;;13.04;63.20;97692.28;5073648;27;20043;-83
2020/12/12 08:12:43;;;;;;;18.83;11.85;;;;;;;12.74;63.98;97700.78;5089992;28;20122;-83
2020/12/12 08:15:24;;;;;;;17.60;11.75;;;;;;;12.99;63.68;97698.69;5076500;27;20199;-83
2020/12/12 08:17:50;;;;;;;20.23;11.98;;;;;;;13.00;63.59;97703.84;5102352;28;20054;-83
2020/12/12 08:20:17;;;;;;;21.73;11.85;;;;;;;13.05;63.24;97712.31;5074408;28;20039;-83
2020/12/12 08:22:46;;;;;;;16.98;11.77;;;;;;;13.04;63.31;97717.66;5090155;28;20508;-82
2020/12/12 08:25:13;;;;;;;20.20;11.57;;;;;;;13.10;63.12;97720.81;5091667;28;20027;-85
2020/12/12 08:27:39;;;;;;;15.43;10.13;;;;;;;13.12;63.06;97723.41;5107062;28;20039;-82
2020/12/12 08:30:07;;;;;;;16.52;10.50;;;;;;;13.19;62.80;97721.34;5069608;28;20040;-80
2020/12/12 08:32:46;;;;;;;16.17;10.30;;;;;;;13.17;63.16;97723.19;5092504;28;20479;-83
2020/12/12 08:35:26;;;;;;;17.50;10.90;;;;;;;13.08;63.30;97730.53;5068491;28;20032;-82
2020/12/12 08:38:12;;;;;;;18.27;11.10;;;;;;;13.13;63.32;97732.13;5086436;28;20031;-83
2020/12/12 08:40:41;;;;;;;16.48;11.25;;;;;;;13.23;62.78;97742.09;5111886;27;20043;-83
2020/12/12 08:43:09;;;;;;;16.05;10.20;;;;;;;12.98;63.48;97745.03;5123056;28;20027;-83
2020/12/12 08:45:56;;;;;;;15.25;10.63;;;;;;;13.14;63.16;97749.56;5106802;28;20035;-85
2020/12/12 08:48:32;;;;;;;18.55;10.77;;;;;;;13.06;63.66;97747.25;5113077;28;20027;-84
2020/12/12 08:51:01;;;;;;;15.00;8.65;;;;;;;13.05;63.45;97756.88;5126306;27;20039;-83
2020/12/12 08:53:32;;;;;;;13.70;9.70;;;;;;;13.02;64.10;97761.44;5111440;28;20206;-83
2020/12/12 08:56:28;;;;;;;13.70;9.70;;;;;;;12.97;64.04;97766.03;5126511;28;20027;-83
2020/12/12 08:59:06;;;;;;;13.75;8.60;;;;;;;12.91;64.68;97771.56;5142064;27;20028;-84
2020/12/12 09:01:35;;;;;;;12.77;8.50;;;;;;;13.02;64.38;97767.53;5126517;27;20064;-84
2020/12/12 09:04:15;;;;;;;14.35;8.73;;;;;;;12.88;64.54;97772.59;5107972;28;20079;-83
2020/12/12 09:06:47;;;;;;;12.55;7.97;;;;;;;13.07;63.87;97783.88;5110402;27;20035;-83
2020/12/12 09:09:19;;;;;;;12.25;8.15;;;;;;;13.06;64.13;97784.81;5124261;28;20036;-82
2020/12/12 09:11:56;;;;;;;13.68;8.60;;;;;;;12.78;65.16;97791.41;5125672;27;20166;-83
2020/12/12 09:14:23;;;;;;;15.23;9.75;;;;;;;12.96;64.28;97791.41;5104554;28;20032;-84
2020/12/12 09:16:55;;;;;;;14.30;9.10;;;;;;;13.03;64.22;97786.72;5093369;27;20043;-81
2020/12/12 09:19:22;;;;;;;14.40;8.75;;;;;;;13.01;64.47;97794.66;5108418;28;20039;-83
2020/12/12 09:21:48;;;;;;;14.32;9.30;;;;;;;12.53;65.80;97813.50;5126653;28;20042;-81
2020/12/12 09:24:15;;;;;;;19.33;10.43;;;;;;;12.46;66.32;97804.25;5129695;27;20355;-82
2020/12/12 09:26:41;;;;;;;14.18;9.60;;;;;;;12.54;66.21;97812.59;5132270;27;20092;-82
2020/12/12 09:29:07;;;;;;;13.00;8.15;;;;;;;12.59;66.12;97815.00;5111395;27;20058;-81
2020/12/12 09:31:33;;;;;;;12.82;9.15;;;;;;;12.01;68.54;97814.09;5127050;27;21002;-81
2020/12/12 09:33:59;;;;;;;11.32;7.85;;;;;;;12.75;65.98;97828.25;5132113;27;20038;-83
2020/12/12 09:36:25;;;;;;;10.88;6.60;;;;;;;12.52;66.97;97824.03;5129177;27;20031;-83
2020/12/12 09:38:52;;;;;;;8.63;5.90;;;;;;;12.50;67.04;97831.13;5115686;27;20042;-82
2020/12/12 09:41:19;;;;;;;7.88;5.82;;;;;;;12.32;67.25;97835.44;5131247;27;20034;-81
2020/12/12 09:43:47;;;;;;;9.40;5.78;;;;;;;12.05;68.21;97841.84;5117845;27;20040;-81
2020/12/12 09:46:18;;;;;;;8.45;5.45;;;;;;;12.87;65.94;97836.41;5110964;27;20023;-80
2020/12/12 09:48:46;;;;;;;6.28;4.93;;;;;;;13.00;65.38;97842.75;5149284;27;20118;-81
2020/12/12 09:51:12;;;;;;;8.82;4.50;;;;;;;12.65;66.63;97847.03;5134473;27;20691;-81
2020/12/12 09:53:38;;;;;;;8.05;4.22;;;;;;;12.50;66.89;97857.31;5112684;27;20108;-83
2020/12/12 09:56:04;;;;;;;5.57;4.20;;;;;;;12.75;66.01;97860.56;5135817;27;20026;-81
2020/12/12 09:58:32;;;;;;;4.95;3.58;;;;;;;12.18;67.62;97854.31;5130549;27;20142;-81
2020/12/12 10:00:58;;;;;;;6.25;2.95;;;;;;;12.14;68.34;97865.84;5115187;27;20023;-82
2020/12/12 10:03:23;;;;;;;5.03;1.73;;;;;;;12.19;68.06;97863.88;5129823;27;20050;-81
2020/12/12 10:05:49;;;;;;;2.72;1.30;;;;;;;11.65;69.17;97867.03;5129147;27;20068;-81
2020/12/12 10:08:15;;;;;;;2.08;1.10;;;;;;;11.73;69.13;97870.22;5135166;27;20039;-83
2020/12/12 10:10:41;;;;;;;2.28;0.80;;;;;;;11.66;69.23;97875.72;5125600;27;20207;-84
2020/12/12 10:13:07;;;;;;;2.58;1.23;;;;;;;11.24;70.90;97884.38;5124759;27;20126;-83
2020/12/12 10:15:33;;;;;;;4.28;0.90;;;;;;;11.14;70.90;97884.78;5125806;27;20043;-82
2020/12/12 10:18:00;;;;;;;3.95;1.60;;;;;;;11.90;68.80;97885.19;5127134;27;20027;-84
2020/12/12 10:20:25;;;;;;;2.67;0.98;;;;;;;11.55;69.74;97886.63;5124936;27;20024;-83
2020/12/12 10:22:52;;;;;;;2.38;1.00;;;;;;;11.88;69.02;97889.66;5128669;27;20096;-84
2020/12/12 10:25:18;;;;;;;5.55;1.00;;;;;;;12.08;69.27;97894.06;5123774;27;20038;-83
2020/12/12 10:27:46;;;;;;;4.30;0.82;;;;;;;11.85;69.51;97902.84;5129624;27;20101;-82
2020/12/12 10:30:13;;;;;;;1.75;0.70;;;;;;;11.54;70.26;97905.00;5113580;27;20050;-85
2020/12/12 10:32:41;;;;;;;1.10;0.60;;;;;;;11.28;70.61;97896.41;5132752;27;20040;-85
2020/12/12 10:35:11;;;;;;;3.22;0.77;;;;;;;11.50;69.70;97903.41;5110976;27;20035;-85
2020/12/12 10:37:38;;;;;;;4.50;0.93;;;;;;;12.03;68.32;97904.75;5114281;27;20031;-82
2020/12/12 10:40:21;;;;;;;0.73;0.50;;;;;;;11.75;68.67;97912.00;5123743;27;20351;-81
2020/12/12 10:42:48;;;;;;;1.25;0.60;;;;;;;11.38;70.15;97905.59;5133172;27;20819;-82
2020/12/12 10:45:15;;;;;;;3.20;0.80;;;;;;;11.91;67.67;97899.13;5128264;27;20032;-81
2020/12/12 10:47:40;;;;;;;4.13;0.57;;;;;;;12.10;67.37;97897.47;5114309;27;20035;-84
2020/12/12 10:50:07;;;;;;;1.67;0.40;;;;;;;11.45;68.89;97903.59;5131777;27;20026;-84
2020/12/12 10:52:37;;;;;;;1.15;0.35;;;;;;;11.75;68.05;97906.75;5112050;27;20126;-84
2020/12/12 10:55:04;;;;;;;1.33;0.30;;;;;;;11.42;68.88;97898.47;5125034;27;20031;-85
2020/12/12 10:57:30;;;;;;;4.47;0.57;;;;;;;11.57;68.11;97910.94;5126493;27;20039;-82
2020/12/12 10:59:56;;;;;;;3.58;0.63;;;;;;;11.55;67.74;97910.16;5109302;27;20030;-83
2020/12/12 11:02:22;;;;;;;0.80;0.40;;;;;;;11.32;68.09;97916.28;5107245;27;20386;-81
2020/12/12 11:04:47;;;;;;;0.55;0.45;;;;;;;11.03;69.42;97916.53;5096685;27;20038;-83
2020/12/12 11:07:13;;;;;;;2.28;0.82;;;;;;;11.18;69.00;97921.19;5123396;27;20108;-83
2020/12/12 11:09:40;;;;;;;0.80;0.40;;;;;;;10.78;70.22;97916.63;5128048;27;20042;-83
2020/12/12 11:12:06;;;;;;;2.85;0.52;;;;;;;11.33;68.57;97920.59;5130064;27;20106;-83
2020/12/12 11:14:33;;;;;;;2.53;0.63;;;;;;;11.14;69.57;97926.59;5136191;27;20486;-86
2020/12/12 11:17:00;;;;;;;1.80;0.60;;;;;;;11.18;68.67;97931.63;5113004;27;20031;-82
2020/12/12 11:19:27;;;;;;;4.43;0.88;;;;;;;11.25;69.02;97934.88;5111360;27;20356;-81
2020/12/12 11:21:54;;;;;;;6.57;0.70;;;;;;;11.29;69.34;97932.09;5124814;27;20044;-81
2020/12/12 11:24:20;;;;;;;1.05;0.70;;;;;;;10.93;70.40;97936.09;5108803;27;20019;-83